Time;durP1;ratioP1;P1;durP2;ratioP2;P2;SDS_P1;SDS_P2;PMS_P1;PMS_P2;Temp;Humidity;BMP_temperature;BMP_pressure;BME280_temperature;BME280_humidity;BME280_pressure;Samples;Min_cycle;Max_cycle;Signal;HPM_P1;HPM_P2
2024/02/09 00:00:12;;;;;;;0.70;0.52;;;19.20;53.70;;;;;;5021439;28;20088;-65
2024/02/09 00:02:41;;;;;;;0.50;0.45;;;19.20;53.70;;;;;;5017734;28;20136;-65
2024/02/09 00:05:14;;;;;;;0.45;0.45;;;19.20;53.70;;;;;;5011887;28;20032;-64
2024/02/09 00:07:41;;;;;;;0.57;0.57;;;19.20;53.70;;;;;;5017591;28;20029;-63
2024/02/09 00:10:06;;;;;;;0.85;0.60;;;19.20;53.70;;;;;;5021297;28;20472;-61
2024/02/09 00:12:34;;;;;;;0.75;0.47;;;19.20;53.70;;;;;;5022321;28;20036;-64
2024/02/09 00:15:04;;;;;;;0.45;0.45;;;19.20;53.70;;;;;;5025380;28;21451;-62
2024/02/09 00:17:32;;;;;;;0.60;0.60;;;19.20;53.70;;;;;;5023136;28;20514;-64
2024/02/09 00:19:58;;;;;;;0.50;0.50;;;19.20;53.70;;;;;;5020931;28;20116;-66
2024/02/09 00:22:23;;;;;;;0.95;0.73;;;19.20;53.70;;;;;;5019737;28;20097;-65
2024/02/09 00:24:49;;;;;;;0.57;0.47;;;19.20;53.80;;;;;;5002542;28;20045;-65
2024/02/09 00:27:14;;;;;;;1.50;0.65;;;19.20;53.70;;;;;;5021490;28;20097;-65
2024/02/09 00:29:40;;;;;;;1.88;0.52;;;19.20;53.70;;;;;;5020638;28;20041;-65
2024/02/09 00:32:05;;;;;;;0.90;0.52;;;19.20;53.80;;;;;;4999939;28;20033;-66
2024/02/09 00:34:33;;;;;;;0.82;0.60;;;19.20;53.70;;;;;;5021724;28;20044;-65
2024/02/09 00:37:00;;;;;;;0.70;0.50;;;19.20;53.70;;;;;;5002770;28;20030;-65
2024/02/09 00:39:25;;;;;;;0.50;0.40;;;19.20;53.70;;;;;;5019310;28;20044;-65
2024/02/09 00:41:51;;;;;;;0.82;0.60;;;19.20;53.80;;;;;;5018295;28;20593;-66
2024/02/09 00:44:17;;;;;;;0.50;0.50;;;19.20;53.70;;;;;;5025083;28;20080;-65
2024/02/09 00:46:43;;;;;;;0.82;0.50;;;19.20;53.70;;;;;;4999353;28;20029;-64
2024/02/09 00:49:09;;;;;;;1.00;0.50;;;19.20;53.70;;;;;;5004981;28;20515;-65
2024/02/09 00:51:35;;;;;;;1.13;0.60;;;19.20;53.70;;;;;;5000160;28;20463;-66
2024/02/09 00:54:01;;;;;;;1.25;0.60;;;19.20;53.70;;;;;;5022856;28;20033;-65
2024/02/09 00:56:27;;;;;;;0.80;0.50;;;19.20;53.70;;;;;;5019317;28;20036;-65
2024/02/09 00:58:54;;;;;;;0.77;0.60;;;19.20;53.70;;;;;;5020492;28;20038;-66
2024/02/09 01:01:20;;;;;;;0.63;0.57;;;19.20;53.70;;;;;;5021272;28;20029;-65
2024/02/09 01:03:45;;;;;;;1.63;0.90;;;19.20;53.70;;;;;;5015388;28;20041;-65
2024/02/09 01:06:11;;;;;;;0.55;0.47;;;19.20;53.80;;;;;;5020110;28;20041;-65
2024/02/09 01:08:38;;;;;;;1.13;0.50;;;19.20;53.90;;;;;;5019027;28;20047;-64
2024/02/09 01:11:06;;;;;;;1.10;0.50;;;19.10;53.90;;;;;;5016747;28;20124;-65
2024/02/09 02:46:19;;;;;;;1.55;0.75;;;19.40;53.40;;;;;;5026130;28;20033;-64
2024/02/09 03:05:24;;;;;;;1.98;0.70;;;19.50;53.40;;;;;;5023728;28;20084;-64
2024/02/09 03:07:49;;;;;;;1.45;0.77;;;19.40;53.30;;;;;;5024175;28;20030;-65
2024/02/09 03:10:16;;;;;;;1.95;0.80;;;19.40;53.30;;;;;;5023225;28;20032;-66
2024/02/09 03:12:42;;;;;;;1.55;0.95;;;19.50;53.30;;;;;;5022492;28;20134;-64
2024/02/09 03:15:11;;;;;;;2.22;0.65;;;19.40;53.40;;;;;;5004181;28;20044;-65
2024/02/09 03:17:40;;;;;;;1.75;0.80;;;19.40;53.40;;;;;;5022371;28;20037;-64
2024/02/09 03:20:07;;;;;;;1.20;0.70;;;19.40;53.50;;;;;;5022278;28;20042;-65
2024/02/09 03:22:33;;;;;;;1.33;0.60;;;19.40;53.60;;;;;;5022881;28;20033;-65
2024/02/09 03:25:02;;;;;;;1.70;0.77;;;19.30;53.60;;;;;;5026077;28;20634;-62
2024/02/09 03:27:33;;;;;;;1.35;0.80;;;19.30;53.60;;;;;;5018183;28;20033;-64
2024/02/09 03:30:00;;;;;;;1.35;0.70;;;19.30;53.70;;;;;;5024959;28;20064;-65
2024/02/09 03:32:30;;;;;;;1.27;0.57;;;19.30;53.80;;;;;;5022206;28;20067;-65
2024/02/09 03:34:56;;;;;;;1.58;0.80;;;19.20;53.80;;;;;;5026638;28;20057;-66
2024/02/09 03:37:26;;;;;;;3.10;0.90;;;19.20;53.80;;;;;;5023598;28;20030;-65
2024/02/09 03:39:55;;;;;;;3.15;1.10;;;19.20;53.90;;;;;;5019034;28;20034;-65
2024/02/09 03:42:23;;;;;;;2.17;0.70;;;19.20;53.90;;;;;;5021402;28;20079;-66
2024/02/09 03:44:54;;;;;;;2.35;0.77;;;19.20;54.00;;;;;;4994221;28;20046;-65
2024/02/09 03:47:22;;;;;;;2.15;0.90;;;19.10;54.00;;;;;;5019704;28;20100;-65
2024/02/09 03:49:49;;;;;;;3.65;1.00;;;19.10;54.00;;;;;;5023435;28;20052;-66
2024/02/09 03:52:15;;;;;;;1.40;0.60;;;19.10;54.00;;;;;;5020594;28;20517;-66
2024/02/09 03:54:41;;;;;;;2.58;0.90;;;19.10;54.10;;;;;;5006936;28;20041;-65
2024/02/09 03:57:07;;;;;;;1.55;0.57;;;19.10;54.10;;;;;;5023551;28;20029;-65
2024/02/09 03:59:32;;;;;;;1.52;0.75;;;19.10;54.10;;;;;;5022826;28;20603;-65
2024/02/09 04:01:59;;;;;;;2.60;0.98;;;19.10;54.20;;;;;;5024410;28;20032;-64
2024/02/09 04:04:26;;;;;;;3.15;0.80;;;19.00;54.10;;;;;;5006755;28;20381;-66
2024/02/09 04:06:52;;;;;;;1.67;0.63;;;19.00;54.30;;;;;;5019138;28;20045;-65
2024/02/09 04:09:17;;;;;;;1.90;1.05;;;19.00;54.30;;;;;;5021265;28;20036;-65
2024/02/09 04:11:43;;;;;;;1.70;0.60;;;19.00;54.20;;;;;;5018675;28;20408;-65
2024/02/09 04:14:08;;;;;;;1.85;0.68;;;19.00;54.30;;;;;;5020088;28;20125;-65
2024/02/09 04:16:34;;;;;;;0.93;0.57;;;19.00;54.30;;;;;;5019082;28;20037;-65
2024/02/09 04:18:59;;;;;;;1.30;0.65;;;19.00;54.30;;;;;;5019976;28;20060;-65
2024/02/09 04:21:25;;;;;;;1.92;0.82;;;19.00;54.30;;;;;;5021257;28;20025;-66
2024/02/09 04:23:51;;;;;;;1.77;0.60;;;19.00;54.30;;;;;;5023485;28;20537;-65
2024/02/09 04:26:17;;;;;;;2.05;0.85;;;19.00;54.30;;;;;;5003910;28;20032;-65
2024/02/09 04:28:42;;;;;;;4.07;0.85;;;19.00;54.30;;;;;;5019177;28;20034;-65
2024/02/09 04:31:08;;;;;;;2.72;0.90;;;19.00;54.30;;;;;;5020401;28;20048;-66
2024/02/09 04:33:33;;;;;;;1.30;0.88;;;19.00;54.30;;;;;;5020712;28;20045;-64
2024/02/09 04:36:00;;;;;;;2.65;0.90;;;19.00;54.30;;;;;;5019750;28;20045;-65
2024/02/09 04:38:26;;;;;;;3.03;0.45;;;19.00;54.30;;;;;;5022768;28;20033;-64
2024/02/09 04:40:51;;;;;;;1.30;0.75;;;19.00;54.30;;;;;;5015354;28;20062;-65
2024/02/09 04:43:17;;;;;;;2.78;0.98;;;19.00;54.30;;;;;;5019807;28;20423;-65
2024/02/09 04:45:42;;;;;;;2.22;0.85;;;19.00;54.30;;;;;;5011860;28;20516;-65
2024/02/09 04:48:10;;;;;;;2.70;0.88;;;19.00;54.30;;;;;;5022550;28;20100;-65
2024/02/09 04:50:36;;;;;;;1.52;0.70;;;19.00;54.30;;;;;;5014227;28;20061;-65
2024/02/09 04:53:01;;;;;;;1.60;0.77;;;19.00;54.30;;;;;;5019595;28;20121;-65
2024/02/09 04:55:27;;;;;;;2.38;0.90;;;19.00;54.30;;;;;;5017957;28;20551;-66
2024/02/09 04:57:53;;;;;;;1.35;0.90;;;19.00;54.30;;;;;;5003523;28;20098;-65
2024/02/09 05:00:19;;;;;;;1.25;0.70;;;19.00;54.30;;;;;;5017073;28;20115;-66
2024/02/09 05:02:46;;;;;;;2.22;0.80;;;19.00;54.30;;;;;;5020076;28;20025;-66
2024/02/09 05:05:12;;;;;;;2.15;0.95;;;19.00;54.30;;;;;;5004511;28;20064;-66
2024/02/09 05:07:37;;;;;;;2.10;0.60;;;19.00;54.30;;;;;;5025073;28;20111;-65
2024/02/09 05:10:04;;;;;;;1.08;0.70;;;19.00;54.20;;;;;;5017624;28;20026;-64
2024/02/09 05:12:31;;;;;;;1.00;0.50;;;19.00;54.20;;;;;;5024001;28;20037;-64
2024/02/09 05:14:57;;;;;;;3.33;1.20;;;19.00;54.20;;;;;;5015887;28;20238;-67
2024/02/09 05:17:23;;;;;;;1.95;0.73;;;19.00;54.20;;;;;;5023530;28;20037;-65
2024/02/09 05:19:50;;;;;;;2.35;0.93;;;19.00;54.20;;;;;;5010375;28;20168;-66
2024/02/09 05:22:16;;;;;;;1.90;0.95;;;19.00;54.20;;;;;;5024540;28;20029;-66
2024/02/09 05:24:41;;;;;;;0.98;0.57;;;19.00;54.20;;;;;;5010701;28;20508;-65
2024/02/09 05:27:10;;;;;;;2.00;0.77;;;19.00;54.20;;;;;;5024173;28;20584;-66
2024/02/09 05:29:35;;;;;;;1.55;0.70;;;19.00;54.20;;;;;;5021091;28;20037;-65
2024/02/09 05:32:01;;;;;;;1.50;0.55;;;19.00;54.10;;;;;;5023675;28;20688;-65
2024/02/09 05:34:26;;;;;;;1.83;0.90;;;19.00;54.10;;;;;;5004560;28;20403;-64
2024/02/09 05:36:54;;;;;;;1.13;0.70;;;19.00;54.10;;;;;;5024059;28;20485;-65
2024/02/09 05:39:19;;;;;;;2.00;0.80;;;19.00;54.10;;;;;;5022005;28;20672;-65
2024/02/09 05:41:45;;;;;;;2.58;1.00;;;19.00;54.10;;;;;;5023156;28;20087;-65
2024/02/09 05:44:11;;;;;;;1.08;0.63;;;19.10;54.10;;;;;;5021052;28;20121;-65
2024/02/09 05:46:37;;;;;;;2.03;0.77;;;19.00;54.00;;;;;;5020554;28;20079;-66
2024/02/09 05:49:06;;;;;;;1.77;0.60;;;19.10;54.10;;;;;;5019493;28;20531;-67
2024/02/09 05:51:32;;;;;;;1.42;0.55;;;19.00;54.10;;;;;;5006371;28;20033;-67
2024/02/09 05:53:58;;;;;;;1.10;0.73;;;19.10;54.10;;;;;;5024715;28;20103;-66
2024/02/09 05:56:29;;;;;;;0.85;0.65;;;19.10;54.00;;;;;;5023991;28;20492;-66
2024/02/09 05:58:56;;;;;;;1.55;0.95;;;19.00;54.00;;;;;;5024392;28;20041;-67
2024/02/09 06:01:22;;;;;;;1.10;0.70;;;19.10;54.00;;;;;;5025881;28;20025;-65
2024/02/09 06:03:48;;;;;;;0.73;0.43;;;19.10;54.00;;;;;;5028729;28;20028;-66
2024/02/09 06:06:20;;;;;;;2.10;0.88;;;19.10;54.00;;;;;;5023841;28;20120;-67
2024/02/09 06:08:46;;;;;;;2.05;0.82;;;19.10;54.00;;;;;;5023222;28;20053;-66
2024/02/09 06:11:13;;;;;;;2.25;0.80;;;19.10;54.00;;;;;;5022514;28;20037;-66
2024/02/09 06:13:45;;;;;;;2.50;1.20;;;19.10;54.00;;;;;;5006890;28;20041;-67
2024/02/09 06:16:14;;;;;;;0.70;0.43;;;19.10;54.00;;;;;;5022569;28;20537;-66
2024/02/09 06:18:42;;;;;;;1.38;0.70;;;19.10;54.00;;;;;;5023751;28;20025;-66
2024/02/09 06:21:08;;;;;;;2.42;0.77;;;19.10;54.00;;;;;;5022616;28;20033;-67
2024/02/09 06:23:35;;;;;;;1.25;0.60;;;19.10;54.00;;;;;;5022345;28;20029;-68
2024/02/09 06:26:01;;;;;;;1.95;0.95;;;19.10;54.00;;;;;;5024457;28;20032;-66
2024/02/09 06:28:26;;;;;;;1.30;0.75;;;19.10;54.00;;;;;;5024122;28;20042;-67
2024/02/09 06:30:52;;;;;;;2.05;0.88;;;19.10;54.00;;;;;;5022226;28;20025;-69
2024/02/09 06:33:21;;;;;;;1.55;0.80;;;19.10;54.00;;;;;;5023281;28;20040;-68
2024/02/09 06:35:47;;;;;;;2.25;0.90;;;19.10;54.00;;;;;;5020803;28;20374;-67
2024/02/09 06:38:12;;;;;;;2.25;0.80;;;19.10;54.00;;;;;;5007463;28;20056;-66
2024/02/09 06:40:38;;;;;;;1.15;0.50;;;19.10;54.00;;;;;;5003826;28;20022;-67
2024/02/09 06:43:05;;;;;;;1.70;0.60;;;19.10;54.00;;;;;;5021130;28;20034;-66
2024/02/09 06:45:30;;;;;;;1.67;0.57;;;19.10;54.00;;;;;;5023486;28;20032;-67
2024/02/09 06:47:56;;;;;;;2.22;0.82;;;19.10;54.00;;;;;;5020385;28;20104;-68
2024/02/09 06:50:21;;;;;;;2.50;0.80;;;19.10;54.00;;;;;;5022987;28;20049;-66
2024/02/09 06:52:50;;;;;;;1.88;0.95;;;19.10;54.00;;;;;;5018834;28;20060;-66
2024/02/09 06:55:18;;;;;;;2.13;0.93;;;19.10;54.00;;;;;;5021737;28;20034;-68
2024/02/09 06:57:44;;;;;;;2.35;0.80;;;19.10;54.00;;;;;;5020468;28;20040;-67
2024/02/09 07:00:13;;;;;;;1.92;1.02;;;19.10;54.00;;;;;;4998311;28;20091;-67
2024/02/09 07:02:39;;;;;;;3.97;1.13;;;19.10;54.00;;;;;;5019970;28;20596;-68
2024/02/09 07:05:11;;;;;;;4.30;1.25;;;19.10;54.00;;;;;;5018179;28;20071;-66
2024/02/09 07:07:43;;;;;;;3.45;1.35;;;19.10;54.00;;;;;;5019014;28;20029;-67
2024/02/09 07:10:11;;;;;;;1.80;0.95;;;19.10;54.00;;;;;;5022088;28;20047;-67
2024/02/09 07:12:37;;;;;;;2.90;1.00;;;19.10;54.60;;;;;;5020813;28;20052;-65
2024/02/09 07:15:03;;;;;;;2.17;1.10;;;19.10;54.00;;;;;;5022568;28;20025;-67
2024/02/09 07:17:28;;;;;;;3.45;1.33;;;19.10;54.00;;;;;;5021018;28;20408;-66
2024/02/09 07:19:54;;;;;;;3.40;1.38;;;19.10;54.00;;;;;;5021572;28;20127;-67
2024/02/09 07:22:19;;;;;;;1.90;1.02;;;19.10;54.00;;;;;;5015412;28;20026;-66
2024/02/09 07:24:45;;;;;;;3.65;1.75;;;19.10;54.00;;;;;;5019843;28;20042;-66
2024/02/09 07:27:10;;;;;;;4.05;2.03;;;19.20;54.00;;;;;;5017106;28;20128;-66
2024/02/09 07:29:36;;;;;;;4.97;2.25;;;19.10;54.00;;;;;;5020859;28;20447;-67
2024/02/09 07:32:01;;;;;;;5.25;1.63;;;19.10;54.00;;;;;;5019042;28;20029;-67
2024/02/09 07:34:27;;;;;;;4.20;1.80;;;19.10;54.00;;;;;;5015889;28;20088;-66
2024/02/09 07:36:54;;;;;;;4.13;1.77;;;19.20;54.00;;;;;;5016977;28;20742;-66
2024/02/09 07:39:20;;;;;;;5.63;2.25;;;19.20;54.10;;;;;;5019863;28;20052;-66
2024/02/09 07:41:45;;;;;;;2.80;1.55;;;19.10;54.00;;;;;;5002295;28;20728;-67
2024/02/09 07:44:11;;;;;;;4.47;2.20;;;19.10;54.00;;;;;;5016701;28;21095;-65
2024/02/09 07:46:37;;;;;;;4.82;1.98;;;19.20;54.00;;;;;;5016801;28;20033;-64
2024/02/09 07:49:03;;;;;;;5.70;2.50;;;19.20;54.00;;;;;;5013267;28;20120;-65
2024/02/09 07:51:29;;;;;;;5.00;2.45;;;19.20;54.00;;;;;;5017991;28;20504;-65
2024/02/09 07:53:54;;;;;;;5.75;2.60;;;19.20;54.00;;;;;;5015577;28;21676;-64
2024/02/09 07:56:24;;;;;;;5.78;2.50;;;19.10;54.00;;;;;;5019510;28;20037;-64
2024/02/09 07:58:51;;;;;;;4.88;3.22;;;19.20;54.00;;;;;;5014723;28;20520;-65
2024/02/09 08:01:21;;;;;;;5.00;2.85;;;19.20;54.00;;;;;;5017065;28;20076;-65
2024/02/09 08:03:47;;;;;;;5.43;2.70;;;19.10;54.00;;;;;;4998974;28;20412;-66
2024/02/09 08:06:13;;;;;;;5.00;2.60;;;19.20;54.00;;;;;;5015277;28;20041;-65
2024/02/09 08:08:38;;;;;;;4.90;3.08;;;19.20;54.00;;;;;;5014589;28;20041;-64
2024/02/09 08:11:04;;;;;;;6.22;2.95;;;19.20;54.00;;;;;;5012273;28;20041;-65
2024/02/09 08:13:29;;;;;;;5.82;3.33;;;19.10;54.00;;;;;;5014435;28;20485;-65
2024/02/09 08:15:56;;;;;;;5.43;2.97;;;19.10;54.10;;;;;;5016252;28;20041;-65
2024/02/09 08:18:22;;;;;;;5.68;3.10;;;19.10;54.20;;;;;;5012540;28;20159;-65
2024/02/09 08:20:48;;;;;;;6.72;3.33;;;19.00;54.20;;;;;;5011915;28;20033;-65
2024/02/09 08:23:13;;;;;;;4.80;2.80;;;19.00;54.30;;;;;;4985511;28;20522;-65
2024/02/09 08:25:39;;;;;;;5.10;2.97;;;19.00;54.40;;;;;;4985687;28;20112;-65
2024/02/09 08:28:04;;;;;;;6.35;3.25;;;19.00;54.50;;;;;;5001318;28;20076;-65
2024/02/09 08:30:30;;;;;;;8.02;3.40;;;18.90;54.50;;;;;;5005923;28;20026;-66
2024/02/09 08:32:56;;;;;;;9.05;3.78;;;18.90;54.60;;;;;;5014341;28;20048;-64
2024/02/09 08:35:21;;;;;;;6.82;3.75;;;18.80;54.70;;;;;;5011573;28;20057;-66
2024/02/09 08:37:47;;;;;;;8.30;4.25;;;18.80;54.70;;;;;;5015879;28;20060;-66
2024/02/09 08:40:13;;;;;;;6.68;3.45;;;18.80;54.90;;;;;;5009942;28;20140;-66
2024/02/09 08:42:39;;;;;;;6.05;3.88;;;18.80;54.90;;;;;;5007498;28;20045;-66
2024/02/09 08:45:05;;;;;;;7.18;3.75;;;18.70;54.90;;;;;;5017778;28;20041;-65
2024/02/09 08:47:31;;;;;;;5.60;3.20;;;18.70;55.00;;;;;;5018325;28;20041;-66
2024/02/09 08:49:56;;;;;;;5.95;3.13;;;18.70;55.00;;;;;;5015318;28;20508;-68
2024/02/09 08:52:22;;;;;;;9.98;4.28;;;18.70;55.10;;;;;;5014704;28;20048;-67
2024/02/09 08:54:47;;;;;;;9.00;3.60;;;18.70;55.10;;;;;;5014108;28;20452;-67
2024/02/09 08:57:18;;;;;;;7.85;3.65;;;18.60;55.20;;;;;;5016462;28;22479;-67
2024/02/09 08:59:44;;;;;;;6.78;3.90;;;18.60;55.20;;;;;;5012246;28;20068;-68
2024/02/09 09:02:12;;;;;;;8.50;3.92;;;18.60;55.20;;;;;;5011745;28;20781;-67
2024/02/09 09:04:38;;;;;;;8.88;4.28;;;18.60;55.20;;;;;;5004659;28;20658;-67
2024/02/09 09:07:03;;;;;;;8.05;3.97;;;18.60;55.20;;;;;;5002399;28;20045;-67
2024/02/09 09:09:30;;;;;;;7.05;4.03;;;18.60;55.10;;;;;;4996621;28;20480;-68
2024/02/09 09:11:56;;;;;;;7.28;3.25;;;18.70;55.10;;;;;;5021438;28;20038;-66
2024/02/09 09:14:22;;;;;;;8.00;3.63;;;18.70;55.10;;;;;;5012586;28;20033;-68
2024/02/09 09:16:47;;;;;;;8.38;4.50;;;18.70;54.90;;;;;;5022619;28;20543;-68
2024/02/09 09:19:14;;;;;;;5.43;3.97;;;18.80;54.90;;;;;;5020051;28;20077;-68
2024/02/09 09:21:41;;;;;;;6.00;2.92;;;18.80;54.70;;;;;;5023923;28;20029;-67
2024/02/09 09:24:10;;;;;;;6.75;4.00;;;18.90;54.60;;;;;;5017897;28;20784;-67
2024/02/09 09:26:36;;;;;;;6.43;3.30;;;18.90;54.50;;;;;;5020183;28;20064;-67
2024/02/09 09:29:01;;;;;;;8.18;3.55;;;19.00;54.30;;;;;;5015167;28;20116;-68
2024/02/09 09:31:29;;;;;;;6.63;4.07;;;19.10;54.20;;;;;;5016218;28;20095;-68
2024/02/09 09:33:55;;;;;;;5.90;3.22;;;19.10;54.00;;;;;;5017575;28;20062;-66
2024/02/09 09:36:21;;;;;;;6.22;3.35;;;19.20;54.00;;;;;;5021479;28;20492;-67
2024/02/09 09:38:46;;;;;;;6.30;3.50;;;19.30;53.80;;;;;;5018065;28;20037;-67
2024/02/09 09:41:12;;;;;;;5.68;3.10;;;19.40;53.70;;;;;;5021483;28;20159;-67
2024/02/09 09:43:39;;;;;;;6.57;3.22;;;19.40;53.50;;;;;;5015905;28;20030;-67
2024/02/09 09:46:08;;;;;;;6.35;3.38;;;19.50;53.40;;;;;;5000581;28;20033;-67
2024/02/09 09:48:34;;;;;;;6.20;4.03;;;19.50;53.30;;;;;;5012503;28;20557;-67
2024/02/09 09:51:05;;;;;;;4.55;2.85;;;19.60;53.30;;;;;;5016488;28;20396;-67
2024/02/09 09:53:39;;;;;;;6.85;3.20;;;19.60;53.10;;;;;;4997005;28;20084;-68
2024/02/09 09:56:06;;;;;;;6.78;3.15;;;19.70;53.00;;;;;;5015293;28;20033;-68
2024/02/09 09:58:35;;;;;;;6.88;3.47;;;19.80;53.00;;;;;;5018745;28;20034;-67
2024/02/09 10:01:01;;;;;;;6.03;3.00;;;19.70;52.80;;;;;;5017969;28;20041;-67
2024/02/09 10:03:29;;;;;;;5.32;2.83;;;19.80;52.90;;;;;;5017339;28;20430;-68
2024/02/09 10:05:55;;;;;;;5.47;2.90;;;19.80;52.80;;;;;;5020474;28;20036;-68
2024/02/09 10:08:21;;;;;;;5.00;3.33;;;19.80;52.90;;;;;;5017857;28;20034;-68
2024/02/09 10:10:48;;;;;;;7.25;3.95;;;19.80;52.80;;;;;;5020503;28;20428;-68
2024/02/09 10:13:14;;;;;;;4.93;3.38;;;19.80;52.80;;;;;;5022484;28;20044;-67
2024/02/09 10:15:41;;;;;;;5.03;3.10;;;19.80;52.80;;;;;;5022432;28;20025;-67
2024/02/09 10:18:10;;;;;;;6.07;3.10;;;19.80;52.90;;;;;;5026922;28;20584;-67
2024/02/09 10:20:36;;;;;;;5.55;3.00;;;19.80;52.90;;;;;;5018356;28;20025;-67
2024/02/09 10:23:03;;;;;;;5.10;3.05;;;19.80;53.00;;;;;;5007261;28;20092;-68
2024/02/09 10:25:29;;;;;;;6.18;3.13;;;19.70;53.00;;;;;;5020318;28;20030;-67
2024/02/09 10:27:55;;;;;;;7.68;3.25;;;19.80;53.10;;;;;;5022889;28;20520;-67
2024/02/09 10:30:21;;;;;;;4.97;3.45;;;19.70;53.10;;;;;;5000708;28;20029;-67
2024/02/09 10:32:46;;;;;;;6.47;3.58;;;19.70;53.20;;;;;;5000920;28;20132;-67
2024/02/09 10:35:12;;;;;;;6.20;3.45;;;19.70;53.20;;;;;;5021927;28;20370;-67
2024/02/09 10:37:38;;;;;;;5.32;3.25;;;19.70;53.30;;;;;;5023217;28;20026;-68
2024/02/09 10:40:06;;;;;;;4.97;3.15;;;19.70;53.40;;;;;;5019684;28;20060;-67
2024/02/09 10:42:34;;;;;;;4.93;3.47;;;19.60;53.30;;;;;;5022935;28;20040;-67
2024/02/09 10:45:01;;;;;;;5.05;3.03;;;19.60;53.40;;;;;;4983797;28;20500;-67
2024/02/09 10:47:26;;;;;;;5.15;2.95;;;19.50;53.50;;;;;;5004534;28;20037;-67
2024/02/09 10:49:57;;;;;;;4.80;3.15;;;19.50;53.50;;;;;;5021420;28;20048;-64
2024/02/09 10:52:26;;;;;;;6.35;3.50;;;19.50;53.50;;;;;;5004508;28;20037;-66
2024/02/09 10:54:56;;;;;;;6.50;3.00;;;19.50;53.60;;;;;;5020849;28;20712;-66
2024/02/09 10:57:24;;;;;;;6.40;3.30;;;19.50;53.60;;;;;;5022938;28;20053;-66
2024/02/09 10:59:50;;;;;;;6.18;3.40;;;19.50;53.60;;;;;;5004930;28;20061;-65
2024/02/09 11:02:16;;;;;;;6.05;3.30;;;19.50;53.60;;;;;;5019830;28;20450;-65
2024/02/09 11:04:42;;;;;;;6.45;3.58;;;19.50;53.60;;;;;;5003132;28;20038;-65
2024/02/09 11:07:09;;;;;;;5.20;3.08;;;19.50;53.60;;;;;;5023095;28;20112;-65
2024/02/09 11:09:36;;;;;;;4.82;3.20;;;19.50;53.70;;;;;;5022063;28;20699;-65
2024/02/09 11:12:07;;;;;;;5.40;2.92;;;19.50;53.70;;;;;;5002302;28;20103;-65
2024/02/09 11:14:34;;;;;;;4.57;3.42;;;19.40;53.70;;;;;;5020369;28;20026;-65
2024/02/09 11:17:08;;;;;;;5.18;2.90;;;19.40;53.70;;;;;;5021172;28;20041;-65
2024/02/09 11:19:38;;;;;;;4.55;2.70;;;19.40;53.80;;;;;;5003030;28;20034;-65
2024/02/09 11:22:04;;;;;;;6.72;3.60;;;19.40;53.80;;;;;;5019142;28;20519;-65
2024/02/09 11:24:31;;;;;;;4.70;3.13;;;19.40;53.90;;;;;;5025791;28;20403;-65
2024/02/09 11:26:59;;;;;;;5.82;3.25;;;19.40;53.90;;;;;;5023399;28;20542;-65
2024/02/09 11:29:25;;;;;;;6.47;3.15;;;19.40;54.00;;;;;;5020054;28;20036;-65
2024/02/09 11:31:52;;;;;;;4.00;2.88;;;19.40;54.00;;;;;;5022952;28;20038;-65
2024/02/09 11:34:20;;;;;;;5.72;3.25;;;19.40;54.00;;;;;;5022986;28;20044;-65
2024/02/09 11:36:46;;;;;;;4.70;3.10;;;19.30;54.00;;;;;;5022816;28;20052;-65
2024/02/09 11:39:12;;;;;;;6.15;3.50;;;19.30;54.00;;;;;;5006587;28;20496;-65
2024/02/09 11:41:39;;;;;;;4.60;2.90;;;19.30;54.00;;;;;;5016535;28;20041;-66
2024/02/09 11:44:05;;;;;;;5.20;2.53;;;19.30;54.00;;;;;;5015897;28;20038;-67
2024/02/09 11:46:32;;;;;;;5.07;3.00;;;19.30;54.00;;;;;;5017188;28;20052;-66
2024/02/09 11:48:59;;;;;;;4.45;2.60;;;19.30;54.00;;;;;;5017195;28;20052;-66
2024/02/09 11:51:24;;;;;;;4.80;3.03;;;19.30;54.00;;;;;;5016576;28;20156;-66
2024/02/09 11:53:52;;;;;;;3.97;2.45;;;19.30;54.00;;;;;;5001493;28;20034;-66
2024/02/09 11:56:19;;;;;;;4.97;2.83;;;19.30;54.10;;;;;;5017952;28;21125;-65
2024/02/09 11:58:49;;;;;;;3.67;2.42;;;19.30;54.10;;;;;;5015654;28;20030;-66
2024/02/09 12:01:21;;;;;;;4.80;2.50;;;19.20;54.20;;;;;;5013693;28;20042;-63
2024/02/09 12:03:46;;;;;;;4.95;2.92;;;19.20;54.20;;;;;;5018208;28;20099;-66
2024/02/09 12:06:12;;;;;;;4.30;2.47;;;19.20;54.30;;;;;;5015131;28;20045;-66
2024/02/09 12:08:38;;;;;;;5.05;3.15;;;19.20;54.30;;;;;;5018020;28;20034;-65
2024/02/09 12:11:04;;;;;;;5.30;3.05;;;19.20;54.40;;;;;;5014608;28;20033;-66
2024/02/09 12:13:29;;;;;;;4.53;2.50;;;19.10;54.30;;;;;;5015971;28;20039;-66
2024/02/09 12:15:57;;;;;;;6.10;2.72;;;19.10;54.40;;;;;;5019452;28;20038;-64
2024/02/09 12:18:23;;;;;;;4.28;2.65;;;19.10;54.40;;;;;;5014278;28;20048;-67
2024/02/09 12:20:49;;;;;;;3.80;2.60;;;19.10;54.40;;;;;;5015874;28;20548;-66
2024/02/09 12:23:14;;;;;;;4.20;2.70;;;19.10;54.50;;;;;;5015564;28;20029;-66
2024/02/09 12:25:40;;;;;;;3.42;2.28;;;19.00;54.50;;;;;;5017056;28;20812;-66
2024/02/09 12:28:10;;;;;;;4.28;2.55;;;19.00;54.50;;;;;;5013925;28;20363;-66
2024/02/09 12:30:36;;;;;;;2.70;2.50;;;19.00;54.50;;;;;;5013318;28;20030;-66
2024/02/09 12:33:04;;;;;;;6.65;2.83;;;19.00;54.60;;;;;;5013466;28;20048;-66
2024/02/09 12:35:30;;;;;;;3.60;2.30;;;19.00;54.60;;;;;;5017193;28;20381;-65
2024/02/09 12:37:57;;;;;;;4.55;2.75;;;19.00;54.50;;;;;;5016147;28;20049;-66
2024/02/09 12:40:25;;;;;;;3.88;2.38;;;19.00;54.50;;;;;;5014581;28;20288;-65
2024/02/09 12:42:53;;;;;;;3.80;2.50;;;19.00;54.50;;;;;;5015534;28;20060;-64
2024/02/09 12:45:28;;;;;;;5.32;2.78;;;19.00;54.60;;;;;;5018994;28;20038;-62
2024/02/09 12:47:54;;;;;;;3.87;2.50;;;19.00;54.70;;;;;;5014062;28;20535;-64
2024/02/09 12:50:20;;;;;;;3.58;2.60;;;19.00;55.20;;;;;;5015946;28;20257;-62
2024/02/09 12:52:52;;;;;;;3.05;2.05;;;19.00;54.60;;;;;;5017448;28;20056;-65
2024/02/09 12:55:19;;;;;;;3.28;2.30;;;19.00;54.60;;;;;;5020793;28;20036;-63
2024/02/09 12:57:46;;;;;;;3.42;1.98;;;19.00;54.50;;;;;;5018605;28;20029;-64
2024/02/09 13:00:13;;;;;;;3.30;2.20;;;19.00;54.60;;;;;;5019985;28;20168;-64
2024/02/09 13:02:38;;;;;;;4.15;2.40;;;19.00;54.50;;;;;;5020405;28;20532;-64
2024/02/09 13:05:04;;;;;;;4.38;2.60;;;19.00;54.50;;;;;;5021128;28;20136;-64
2024/02/09 13:07:30;;;;;;;3.95;2.60;;;19.00;54.50;;;;;;5002385;28;20026;-65
2024/02/09 13:09:56;;;;;;;2.75;2.20;;;19.00;54.50;;;;;;5020427;28;20049;-64
2024/02/09 13:12:21;;;;;;;2.88;2.20;;;19.00;54.40;;;;;;5021244;28;20033;-63
2024/02/09 13:14:47;;;;;;;4.78;2.42;;;19.00;54.40;;;;;;5022659;28;20029;-65
2024/02/09 13:17:13;;;;;;;3.80;2.10;;;19.00;54.40;;;;;;5020953;28;20044;-64
2024/02/09 13:19:39;;;;;;;3.25;2.10;;;19.10;54.40;;;;;;5020972;28;20025;-64
2024/02/09 13:22:08;;;;;;;2.65;1.90;;;19.10;54.40;;;;;;5020681;28;20030;-64
2024/02/09 13:24:39;;;;;;;3.92;2.30;;;19.10;54.30;;;;;;5020221;28;20124;-64
2024/02/09 13:27:13;;;;;;;2.40;1.67;;;19.10;54.30;;;;;;5022394;28;20048;-65
2024/02/09 13:29:41;;;;;;;2.53;2.07;;;19.10;54.30;;;;;;5012036;28;20041;-64
2024/02/09 13:32:07;;;;;;;2.83;1.90;;;19.10;54.30;;;;;;5010592;28;20400;-66
2024/02/09 13:34:33;;;;;;;3.22;1.88;;;19.10;54.20;;;;;;4976778;28;20033;-66
2024/02/09 13:36:59;;;;;;;3.38;2.05;;;19.10;54.40;;;;;;5012842;28;20045;-65
2024/02/09 13:39:26;;;;;;;3.25;1.95;;;19.10;54.20;;;;;;4998866;28;20396;-65
2024/02/09 13:41:53;;;;;;;3.08;2.20;;;19.20;54.20;;;;;;5001109;28;21744;-65
2024/02/09 13:44:18;;;;;;;3.00;1.67;;;19.10;54.30;;;;;;4990770;28;20030;-65
2024/02/09 13:46:44;;;;;;;3.20;2.10;;;19.20;54.20;;;;;;4998054;28;20045;-66
2024/02/09 13:49:09;;;;;;;2.70;1.98;;;19.20;54.20;;;;;;4997653;28;20042;-65
2024/02/09 13:51:35;;;;;;;2.72;1.98;;;19.20;54.20;;;;;;5023987;28;20060;-65
2024/02/09 13:54:00;;;;;;;2.85;1.75;;;19.20;54.20;;;;;;5022799;28;20543;-65
2024/02/09 13:56:27;;;;;;;2.67;1.52;;;19.20;54.20;;;;;;5027911;28;20026;-65
2024/02/09 13:58:53;;;;;;;2.75;2.15;;;19.20;54.10;;;;;;5025340;28;20116;-66
2024/02/09 14:01:18;;;;;;;2.83;1.80;;;19.20;54.10;;;;;;5023676;28;20512;-65
2024/02/09 14:03:44;;;;;;;3.40;1.48;;;19.20;54.10;;;;;;5022629;28;20511;-64
2024/02/09 14:06:13;;;;;;;2.00;1.70;;;19.20;54.80;;;;;;5006314;28;20041;-65
2024/02/09 14:08:38;;;;;;;2.42;1.25;;;19.20;54.20;;;;;;5025668;28;20513;-65
2024/02/09 14:11:04;;;;;;;2.83;1.50;;;19.20;54.30;;;;;;5023741;28;20124;-65
2024/02/09 14:13:31;;;;;;;3.47;1.75;;;19.20;54.50;;;;;;5021168;28;20033;-66
2024/02/09 14:15:56;;;;;;;3.92;1.80;;;19.20;54.60;;;;;;5023652;28;20034;-65
2024/02/09 14:18:24;;;;;;;4.35;1.95;;;19.20;54.60;;;;;;5024055;28;20053;-65
2024/02/09 14:20:50;;;;;;;2.83;1.70;;;19.20;54.70;;;;;;5024730;28;20044;-65
2024/02/09 14:23:15;;;;;;;2.65;1.67;;;19.10;54.80;;;;;;5023110;28;20030;-66
2024/02/09 14:25:44;;;;;;;3.67;1.67;;;19.10;54.90;;;;;;5024023;28;20502;-65
2024/02/09 14:28:10;;;;;;;3.58;1.85;;;19.10;54.90;;;;;;5005954;28;20045;-66
2024/02/09 14:30:36;;;;;;;3.85;1.65;;;19.00;55.10;;;;;;5023838;28;20018;-65
2024/02/09 14:33:03;;;;;;;2.72;1.55;;;19.00;54.90;;;;;;4989217;28;20050;-66